Madison Orca — A8UA7 — position and weather

sailwx.info

Track history (hours):
 
Tides and Currents Weather Stations Pressure Air Temp Water Temp Dewpoint Dewpoint Depression Visibility Wind Speed Wind Dir Waves Ship Positions

Madison Orca

Last reported at 2018-May-03 14:06 UTC. Time now 2018-Jun-19 01:26 UTC.
Position S 30°37' E 030°58'.
Warning: this ship's position is 46 days out of date.

Length 340 m; draft 10.7 m.

Type: Tanker. MMSI: 636014465.

Date/timePositionNaut miles runAvg speedWind from/ knotsBaromVisibWave heightAir tempDewpointWater temp
2018-May-03 14:06S 30°37' E 030°58'1 8.5
2018-May-03 14:00S 30°36' E 030°58'5 9.5
2018-May-03 13:30S 30°32' E 031°01'510.0
2018-May-03 13:00S 30°28' E 031°04'510.2
2018-May-03 12:30S 30°24' E 031°07'510.1
2018-May-03 12:00S 30°19' E 031°10'5 9.6
2018-May-03 11:30S 30°15' E 031°12'5 9.9
2018-May-03 11:00S 30°10' E 031°13'5 9.9
2018-May-03 10:30S 30°05' E 031°14'5 9.9
2018-May-03 10:00S 30°00' E 031°15'5 9.8
2018-May-03 09:30S 29°55' E 031°16'511.0
2018-May-03 09:00S 29°51' E 031°11'4 8.2
2018-May-03 08:30S 29°49' E 031°07'2 3.2
2018-May-03 08:00S 29°51' E 031°08'0 0.6
2018-May-03 07:30S 29°50' E 031°08'0 0.3
2018-May-03 07:00S 29°50' E 031°08'1 1.7
2018-May-03 06:30S 29°51' E 031°08'0 0.9
2018-May-03 06:00S 29°52' E 031°08'0 0.9
2018-May-03 05:29S 29°52' E 031°09'1 1.9
2018-May-03 05:00S 29°51' E 031°09'1 1.4
2018-May-03 04:30S 29°51' E 031°09'1 1.8
2018-May-03 04:00S 29°52' E 031°09'3 5.1
2018-May-03 03:30S 29°52' E 031°12'2 3.2
2018-May-03 03:00S 29°54' E 031°13'1 2.9
2018-May-03 02:30S 29°55' E 031°14'2 4.3
2018-May-03 02:00S 29°54' E 031°12'4 8.1
2018-May-03 01:30S 29°50' E 031°09'1 2.4
2018-May-03 01:00S 29°50' E 031°11'1 3.0
2018-May-03 00:30S 29°51' E 031°12'1 2.0
2018-May-03 00:00S 29°52' E 031°13'1 1.4
2018-May-02 23:30S 29°52' E 031°14'1 1.9
2018-May-02 23:00S 29°51' E 031°15'1 2.1
2018-May-02 22:30S 29°51' E 031°16'1 1.9
2018-May-02 22:00S 29°50' E 031°16'2 3.2
2018-May-02 21:30S 29°49' E 031°18'5 9.4
2018-May-02 21:00S 29°54' E 031°17'611.6
2018-May-02 20:30S 29°57' E 031°12'511.0
2018-May-02 20:00S 29°59' E 031°06'3 5.6
2018-May-02 19:30S 30°00' E 031°03'2 3.2
2018-May-02 19:00S 30°01' E 031°01'2 3.1
2018-May-02 18:30S 30°01' E 030°60'1 3.0
2018-May-02 18:00S 30°00' E 030°58'0 0.7
2018-May-02 17:29S 30°01' E 030°58'0 0.0
2018-May-02 16:59S 30°01' E 030°58'0 0.0
2018-May-02 16:26S 30°01' E 030°58'0 0.0
2018-May-02 15:38S 30°01' E 030°58'0 0.0
2018-May-02 15:26S 30°01' E 030°58'0 0.0
2018-May-02 14:56S 30°01' E 030°58'0 0.0
2018-May-02 14:26S 30°01' E 030°58'0 0.0
2018-May-02 13:56S 30°01' E 030°58'0 0.0
2018-May-02 13:26S 30°01' E 030°58'0 0.0
2018-May-02 12:56S 30°01' E 030°58'0 0.0
2018-May-02 12:26S 30°01' E 030°58'0 0.0
2018-May-02 11:56S 30°01' E 030°58'0 0.0
2018-May-02 11:29S 30°01' E 030°58'0 0.0
2018-May-02 10:56S 30°01' E 030°58'0 0.0
2018-May-02 10:29S 30°01' E 030°58'0 0.0
2018-May-02 09:59S 30°01' E 030°58'0 0.0
2018-May-02 09:26S 30°01' E 030°58'0 0.0
2018-May-02 08:56S 30°01' E 030°58'0 0.0
2018-May-02 08:26S 30°01' E 030°58'0 0.0
2018-May-02 07:47S 30°01' E 030°58'0 0.1
2018-May-02 07:29S 30°01' E 030°58'0 0.0
2018-May-02 06:56S 30°01' E 030°58'0 0.0
2018-May-02 06:26S 30°01' E 030°58'0 0.0
2018-May-02 05:59S 30°01' E 030°58'0 0.0
2018-May-02 05:29S 30°01' E 030°58'0 0.0
2018-May-02 04:56S 30°01' E 030°58'0 0.0
2018-May-02 04:26S 30°01' E 030°58'0 0.0
2018-May-02 03:56S 30°01' E 030°58'0 0.0
2018-May-02 03:29S 30°01' E 030°58'0 0.0
2018-May-02 02:56S 30°01' E 030°58'0 0.0
2018-May-02 02:29S 30°01' E 030°58'0 0.0
2018-May-02 01:59S 30°01' E 030°58'0 0.0
2018-May-02 01:26S 30°01' E 030°58'0 0.0
2018-May-02 00:59S 30°01' E 030°58'0 0.0
2018-May-02 00:29S 30°01' E 030°58'0 0.0
2018-May-01 23:59S 30°01' E 030°58'0 0.0
2018-May-01 23:26S 30°01' E 030°58'0 0.0
2018-May-01 22:59S 30°01' E 030°58'0 0.0
2018-May-01 22:29S 30°01' E 030°58'0 0.0
2018-May-01 21:59S 30°01' E 030°58'0 0.0
2018-May-01 21:23S 30°01' E 030°58'0 0.0
2018-May-01 20:56S 30°01' E 030°58'0 0.0
2018-May-01 20:29S 30°01' E 030°58'0 0.0
2018-May-01 19:56S 30°01' E 030°58'0 0.0
2018-May-01 19:29S 30°01' E 030°58'0 0.0
2018-May-01 18:59S 30°01' E 030°58'0 0.0
2018-May-01 18:29S 30°01' E 030°58'0 0.0
2018-May-01 17:59S 30°01' E 030°58'0 0.0
2018-May-01 17:29S 30°01' E 030°58'0 0.0
2018-May-01 16:56S 30°01' E 030°58'0 0.0
2018-May-01 16:29S 30°01' E 030°58'0 0.0
2018-May-01 15:50S 30°01' E 030°58'0 0.0
2018-May-01 15:26S 30°01' E 030°58'0 0.0
2018-May-01 14:56S 30°01' E 030°58'0 0.1
2018-May-01 14:26S 30°01' E 030°58'0 0.0
2018-May-01 13:59S 30°01' E 030°58'0 0.0
2018-May-01 13:29S 30°01' E 030°58'0 0.0
2018-May-01 12:56S 30°01' E 030°58'0 0.0
2018-May-01 12:26S 30°01' E 030°58'0 0.0
2018-May-01 11:56S 30°01' E 030°58'0 0.0
2018-May-01 11:29S 30°00' E 030°58'0 0.0
2018-May-01 10:50S 30°00' E 030°58'0 0.0
2018-May-01 10:20S 30°00' E 030°58'0 0.0
2018-May-01 09:56S 30°00' E 030°58'0 0.0
2018-May-01 09:29S 30°00' E 030°58'0 0.0
2018-May-01 08:56S 30°00' E 030°58'0 0.0
2018-May-01 08:26S 30°00' E 030°58'0 0.0
2018-May-01 07:59S 30°00' E 030°58'0 0.1
2018-May-01 07:29S 30°01' E 030°58'0 0.0
2018-May-01 06:56S 30°01' E 030°58'0 0.0
2018-May-01 06:29S 30°01' E 030°58'0 0.0
2018-May-01 05:59S 30°01' E 030°58'0 0.1
2018-May-01 05:29S 30°01' E 030°58'0 0.0
2018-May-01 04:56S 30°00' E 030°58'0 0.0
2018-May-01 04:26S 30°00' E 030°58'0 0.1
2018-May-01 03:59S 30°00' E 030°58'0 0.0
2018-May-01 03:26S 30°00' E 030°58'0 0.0
2018-May-01 02:59S 30°00' E 030°58'0 0.1
2018-May-01 02:26S 30°00' E 030°58'0 0.1
2018-May-01 01:59S 30°00' E 030°58'0 0.0
2018-May-01 01:26S 30°00' E 030°58'0 0.0
2018-May-01 00:56S 30°00' E 030°58'0 0.1
2018-Apr-30 23:50S 30°00' E 030°58'0 0.1
2018-Apr-30 23:20S 30°00' E 030°58'0 0.1
2018-Apr-30 22:56S 30°00' E 030°58'0 0.0
2018-Apr-30 22:26S 30°00' E 030°58'0 0.0
2018-Apr-30 21:59S 30°00' E 030°58'0 0.0
2018-Apr-30 21:29S 30°00' E 030°58'0 0.0
2018-Apr-30 20:59S 30°00' E 030°58'0 0.0
2018-Apr-30 20:29S 30°00' E 030°58'0 0.0
2018-Apr-30 19:59S 30°00' E 030°58'0 0.0
2018-Apr-30 19:29S 30°00' E 030°58'0 0.0
2018-Apr-30 18:59S 30°00' E 030°58'0 0.0
2018-Apr-30 18:29S 30°00' E 030°58'0 0.0
2018-Apr-30 17:59S 30°00' E 030°58'0 0.0
2018-Apr-30 17:29S 30°00' E 030°58'0 0.0
2018-Apr-30 16:56S 30°00' E 030°58'0 0.0
2018-Apr-30 16:29S 30°00' E 030°58'0 0.0
2018-Apr-30 15:59S 30°00' E 030°58'0 0.0
2018-Apr-30 15:26S 30°00' E 030°58'0 0.1
2018-Apr-30 14:56S 30°00' E 030°58'0 0.0
2018-Apr-30 14:29S 30°00' E 030°58'0 0.0
2018-Apr-30 13:56S 30°00' E 030°58'0 0.0
2018-Apr-30 13:29S 30°00' E 030°58'0 0.0
2018-Apr-30 12:59S 30°00' E 030°58'0 0.0
2018-Apr-30 10:41S 30°00' E 030°58'0 0.5
2018-Apr-30 10:30S 30°00' E 030°59'1 1.2
2018-Apr-30 10:00S 30°00' E 030°59'1 1.9
2018-Apr-30 09:30S 30°00' E 031°00'1 1.4
2018-Apr-30 09:00S 30°01' E 031°01'1 2.2
2018-Apr-30 08:30S 30°02' E 031°02'0 0.8
2018-Apr-30 07:59S 30°01' E 031°02'0 0.6
2018-Apr-30 07:30S 30°01' E 031°02'0 0.6
2018-Apr-30 07:00S 30°01' E 031°03'1 1.8
2018-Apr-30 06:30S 30°01' E 031°04'1 1.2
2018-Apr-30 06:00S 30°01' E 031°04'2 4.0
2018-Apr-30 05:30S 29°59' E 031°05'3 6.2
2018-Apr-30 05:00S 29°57' E 031°07'2 3.4
2018-Apr-30 04:30S 29°55' E 031°08'1 1.2
2018-Apr-30 04:00S 29°55' E 031°08'2 4.8
2018-Apr-30 03:30S 29°55' E 031°11'3 5.9
2018-Apr-30 03:00S 29°55' E 031°15'5 9.7
2018-Apr-30 02:29S 29°54' E 031°20'511.4
2018-Apr-30 02:00S 29°53' E 031°26'611.6
2018-Apr-30 01:30S 29°52' E 031°33'611.8
2018-Apr-30 01:00S 29°52' E 031°40'611.9
2018-Apr-30 00:30S 29°51' E 031°47'612.1
2018-Apr-30 00:00S 29°50' E 031°54'612.2
2018-Apr-29 23:30S 29°49' E 032°00'  
Track history (hours):
 
Tides and Currents Weather Stations Pressure Air Temp Water Temp Dewpoint Dewpoint Depression Visibility Wind Speed Wind Dir Waves Ship Positions

Madison Orca

Last reported at 2018-May-03 14:06 UTC. Time now 2018-Jun-19 01:26 UTC.
Position S 30°37' E 030°58'.
Warning: this ship's position is 46 days out of date.

Length 340 m; draft 10.7 m.

Type: Tanker. MMSI: 636014465.

Date/timePositionNaut miles runAvg speedWind from/ knotsBaromVisibWave heightAir tempDewpointWater temp
2018-May-03 14:06S 30°37' E 030°58'1 8.5
2018-May-03 14:00S 30°36' E 030°58'5 9.5
2018-May-03 13:30S 30°32' E 031°01'510.0
2018-May-03 13:00S 30°28' E 031°04'510.2
2018-May-03 12:30S 30°24' E 031°07'510.1
2018-May-03 12:00S 30°19' E 031°10'5 9.6
2018-May-03 11:30S 30°15' E 031°12'5 9.9
2018-May-03 11:00S 30°10' E 031°13'5 9.9
2018-May-03 10:30S 30°05' E 031°14'5 9.9
2018-May-03 10:00S 30°00' E 031°15'5 9.8
2018-May-03 09:30S 29°55' E 031°16'511.0
2018-May-03 09:00S 29°51' E 031°11'4 8.2
2018-May-03 08:30S 29°49' E 031°07'2 3.2
2018-May-03 08:00S 29°51' E 031°08'0 0.6
2018-May-03 07:30S 29°50' E 031°08'0 0.3
2018-May-03 07:00S 29°50' E 031°08'1 1.7
2018-May-03 06:30S 29°51' E 031°08'0 0.9
2018-May-03 06:00S 29°52' E 031°08'0 0.9
2018-May-03 05:29S 29°52' E 031°09'1 1.9
2018-May-03 05:00S 29°51' E 031°09'1 1.4
2018-May-03 04:30S 29°51' E 031°09'1 1.8
2018-May-03 04:00S 29°52' E 031°09'3 5.1
2018-May-03 03:30S 29°52' E 031°12'2 3.2
2018-May-03 03:00S 29°54' E 031°13'1 2.9
2018-May-03 02:30S 29°55' E 031°14'2 4.3
2018-May-03 02:00S 29°54' E 031°12'4 8.1
2018-May-03 01:30S 29°50' E 031°09'1 2.4
2018-May-03 01:00S 29°50' E 031°11'1 3.0
2018-May-03 00:30S 29°51' E 031°12'1 2.0
2018-May-03 00:00S 29°52' E 031°13'1 1.4
2018-May-02 23:30S 29°52' E 031°14'1 1.9
2018-May-02 23:00S 29°51' E 031°15'1 2.1
2018-May-02 22:30S 29°51' E 031°16'1 1.9
2018-May-02 22:00S 29°50' E 031°16'2 3.2
2018-May-02 21:30S 29°49' E 031°18'5 9.4
2018-May-02 21:00S 29°54' E 031°17'611.6
2018-May-02 20:30S 29°57' E 031°12'511.0
2018-May-02 20:00S 29°59' E 031°06'3 5.6
2018-May-02 19:30S 30°00' E 031°03'2 3.2
2018-May-02 19:00S 30°01' E 031°01'2 3.1
2018-May-02 18:30S 30°01' E 030°60'1 3.0
2018-May-02 18:00S 30°00' E 030°58'0 0.7
2018-May-02 17:29S 30°01' E 030°58'0 0.0
2018-May-02 16:59S 30°01' E 030°58'0 0.0
2018-May-02 16:26S 30°01' E 030°58'0 0.0
2018-May-02 15:38S 30°01' E 030°58'0 0.0
2018-May-02 15:26S 30°01' E 030°58'0 0.0
2018-May-02 14:56S 30°01' E 030°58'0 0.0
2018-May-02 14:26S 30°01' E 030°58'0 0.0
2018-May-02 13:56S 30°01' E 030°58'0 0.0
2018-May-02 13:26S 30°01' E 030°58'0 0.0
2018-May-02 12:56S 30°01' E 030°58'0 0.0
2018-May-02 12:26S 30°01' E 030°58'0 0.0
2018-May-02 11:56S 30°01' E 030°58'0 0.0
2018-May-02 11:29S 30°01' E 030°58'0 0.0
2018-May-02 10:56S 30°01' E 030°58'0 0.0
2018-May-02 10:29S 30°01' E 030°58'0 0.0
2018-May-02 09:59S 30°01' E 030°58'0 0.0
2018-May-02 09:26S 30°01' E 030°58'0 0.0
2018-May-02 08:56S 30°01' E 030°58'0 0.0
2018-May-02 08:26S 30°01' E 030°58'0 0.0
2018-May-02 07:47S 30°01' E 030°58'0 0.1
2018-May-02 07:29S 30°01' E 030°58'0 0.0
2018-May-02 06:56S 30°01' E 030°58'0 0.0
2018-May-02 06:26S 30°01' E 030°58'0 0.0
2018-May-02 05:59S 30°01' E 030°58'0 0.0
2018-May-02 05:29S 30°01' E 030°58'0 0.0
2018-May-02 04:56S 30°01' E 030°58'0 0.0
2018-May-02 04:26S 30°01' E 030°58'0 0.0
2018-May-02 03:56S 30°01' E 030°58'0 0.0
2018-May-02 03:29S 30°01' E 030°58'0 0.0
2018-May-02 02:56S 30°01' E 030°58'0 0.0
2018-May-02 02:29S 30°01' E 030°58'0 0.0
2018-May-02 01:59S 30°01' E 030°58'0 0.0
2018-May-02 01:26S 30°01' E 030°58'0 0.0
2018-May-02 00:59S 30°01' E 030°58'0 0.0
2018-May-02 00:29S 30°01' E 030°58'0 0.0
2018-May-01 23:59S 30°01' E 030°58'0 0.0
2018-May-01 23:26S 30°01' E 030°58'0 0.0
2018-May-01 22:59S 30°01' E 030°58'0 0.0
2018-May-01 22:29S 30°01' E 030°58'0 0.0
2018-May-01 21:59S 30°01' E 030°58'0 0.0
2018-May-01 21:23S 30°01' E 030°58'0 0.0
2018-May-01 20:56S 30°01' E 030°58'0 0.0
2018-May-01 20:29S 30°01' E 030°58'0 0.0
2018-May-01 19:56S 30°01' E 030°58'0 0.0
2018-May-01 19:29S 30°01' E 030°58'0 0.0
2018-May-01 18:59S 30°01' E 030°58'0 0.0
2018-May-01 18:29S 30°01' E 030°58'0 0.0
2018-May-01 17:59S 30°01' E 030°58'0 0.0
2018-May-01 17:29S 30°01' E 030°58'0 0.0
2018-May-01 16:56S 30°01' E 030°58'0 0.0
2018-May-01 16:29S 30°01' E 030°58'0 0.0
2018-May-01 15:50S 30°01' E 030°58'0 0.0
2018-May-01 15:26S 30°01' E 030°58'0 0.0
2018-May-01 14:56S 30°01' E 030°58'0 0.1
2018-May-01 14:26S 30°01' E 030°58'0 0.0
2018-May-01 13:59S 30°01' E 030°58'0 0.0
2018-May-01 13:29S 30°01' E 030°58'0 0.0
2018-May-01 12:56S 30°01' E 030°58'0 0.0
2018-May-01 12:26S 30°01' E 030°58'0 0.0
2018-May-01 11:56S 30°01' E 030°58'0 0.0
2018-May-01 11:29S 30°00' E 030°58'0 0.0
2018-May-01 10:50S 30°00' E 030°58'0 0.0
2018-May-01 10:20S 30°00' E 030°58'0 0.0
2018-May-01 09:56S 30°00' E 030°58'0 0.0
2018-May-01 09:29S 30°00' E 030°58'0 0.0
2018-May-01 08:56S 30°00' E 030°58'0 0.0
2018-May-01 08:26S 30°00' E 030°58'0 0.0
2018-May-01 07:59S 30°00' E 030°58'0 0.1
2018-May-01 07:29S 30°01' E 030°58'0 0.0
2018-May-01 06:56S 30°01' E 030°58'0 0.0
2018-May-01 06:29S 30°01' E 030°58'0 0.0
2018-May-01 05:59S 30°01' E 030°58'0 0.1
2018-May-01 05:29S 30°01' E 030°58'0 0.0
2018-May-01 04:56S 30°00' E 030°58'0 0.0
2018-May-01 04:26S 30°00' E 030°58'0 0.1
2018-May-01 03:59S 30°00' E 030°58'0 0.0
2018-May-01 03:26S 30°00' E 030°58'0 0.0
2018-May-01 02:59S 30°00' E 030°58'0 0.1
2018-May-01 02:26S 30°00' E 030°58'0 0.1
2018-May-01 01:59S 30°00' E 030°58'0 0.0
2018-May-01 01:26S 30°00' E 030°58'0 0.0
2018-May-01 00:56S 30°00' E 030°58'0 0.1
2018-Apr-30 23:50S 30°00' E 030°58'0 0.1
2018-Apr-30 23:20S 30°00' E 030°58'0 0.1
2018-Apr-30 22:56S 30°00' E 030°58'0 0.0
2018-Apr-30 22:26S 30°00' E 030°58'0 0.0
2018-Apr-30 21:59S 30°00' E 030°58'0 0.0
2018-Apr-30 21:29S 30°00' E 030°58'0 0.0
2018-Apr-30 20:59S 30°00' E 030°58'0 0.0
2018-Apr-30 20:29S 30°00' E 030°58'0 0.0
2018-Apr-30 19:59S 30°00' E 030°58'0 0.0
2018-Apr-30 19:29S 30°00' E 030°58'0 0.0
2018-Apr-30 18:59S 30°00' E 030°58'0 0.0
2018-Apr-30 18:29S 30°00' E 030°58'0 0.0
2018-Apr-30 17:59S 30°00' E 030°58'0 0.0
2018-Apr-30 17:29S 30°00' E 030°58'0 0.0
2018-Apr-30 16:56S 30°00' E 030°58'0 0.0
2018-Apr-30 16:29S 30°00' E 030°58'0 0.0
2018-Apr-30 15:59S 30°00' E 030°58'0 0.0
2018-Apr-30 15:26S 30°00' E 030°58'0 0.1
2018-Apr-30 14:56S 30°00' E 030°58'0 0.0
2018-Apr-30 14:29S 30°00' E 030°58'0 0.0
2018-Apr-30 13:56S 30°00' E 030°58'0 0.0
2018-Apr-30 13:29S 30°00' E 030°58'0 0.0
2018-Apr-30 12:59S 30°00' E 030°58'0 0.0
2018-Apr-30 10:41S 30°00' E 030°58'0 0.5
2018-Apr-30 10:30S 30°00' E 030°59'1 1.2
2018-Apr-30 10:00S 30°00' E 030°59'1 1.9
2018-Apr-30 09:30S 30°00' E 031°00'1 1.4
2018-Apr-30 09:00S 30°01' E 031°01'1 2.2
2018-Apr-30 08:30S 30°02' E 031°02'0 0.8
2018-Apr-30 07:59S 30°01' E 031°02'0 0.6
2018-Apr-30 07:30S 30°01' E 031°02'0 0.6
2018-Apr-30 07:00S 30°01' E 031°03'1 1.8
2018-Apr-30 06:30S 30°01' E 031°04'1 1.2
2018-Apr-30 06:00S 30°01' E 031°04'2 4.0
2018-Apr-30 05:30S 29°59' E 031°05'3 6.2
2018-Apr-30 05:00S 29°57' E 031°07'2 3.4
2018-Apr-30 04:30S 29°55' E 031°08'1 1.2
2018-Apr-30 04:00S 29°55' E 031°08'2 4.8
2018-Apr-30 03:30S 29°55' E 031°11'3 5.9
2018-Apr-30 03:00S 29°55' E 031°15'5 9.7
2018-Apr-30 02:29S 29°54' E 031°20'511.4
2018-Apr-30 02:00S 29°53' E 031°26'611.6
2018-Apr-30 01:30S 29°52' E 031°33'611.8
2018-Apr-30 01:00S 29°52' E 031°40'611.9
2018-Apr-30 00:30S 29°51' E 031°47'612.1
2018-Apr-30 00:00S 29°50' E 031°54'612.2
2018-Apr-29 23:30S 29°49' E 032°00'  

Dump ship's entire track history